sensor_id;sensor_type;location;lat;lon;timestamp;pressure;altitude;pressure_sealevel;temperature;humidity
28428;BME280;15662;49.128;8.520;2023-04-28T00:02:04;100190.50;;;18.74;40.45
28428;BME280;15662;49.128;8.520;2023-04-28T00:04:32;100201.81;;;18.79;40.35
28428;BME280;15662;49.128;8.520;2023-04-28T00:07:01;100202.84;;;18.76;40.42
28428;BME280;15662;49.128;8.520;2023-04-28T00:09:35;100193.28;;;18.72;40.21
28428;BME280;15662;49.128;8.520;2023-04-28T00:12:03;100202.66;;;18.79;40.25
28428;BME280;15662;49.128;8.520;2023-04-28T00:14:31;100195.84;;;18.74;40.40
28428;BME280;15662;49.128;8.520;2023-04-28T00:17:00;100212.44;;;18.80;40.44
28428;BME280;15662;49.128;8.520;2023-04-28T00:19:30;100196.03;;;18.71;40.33
28428;BME280;15662;49.128;8.520;2023-04-28T00:21:58;100193.06;;;18.75;40.42
28428;BME280;15662;49.128;8.520;2023-04-28T00:24:27;100190.31;;;18.77;40.71
28428;BME280;15662;49.128;8.520;2023-04-28T00:26:57;100179.66;;;18.75;40.61
28428;BME280;15662;49.128;8.520;2023-04-28T00:29:26;100187.31;;;18.81;40.82
28428;BME280;15662;49.128;8.520;2023-04-28T00:31:55;100176.56;;;18.81;40.84
28428;BME280;15662;49.128;8.520;2023-04-28T00:34:24;100171.19;;;18.81;40.99
28428;BME280;15662;49.128;8.520;2023-04-28T00:36:53;100168.63;;;18.80;40.89
28428;BME280;15662;49.128;8.520;2023-04-28T00:39:21;100157.31;;;18.75;40.99
28428;BME280;15662;49.128;8.520;2023-04-28T00:41:50;100163.75;;;18.72;41.45
28428;BME280;15662;49.128;8.520;2023-04-28T00:44:18;100164.00;;;18.68;41.68
28428;BME280;15662;49.128;8.520;2023-04-28T00:46:48;100174.56;;;18.71;42.25
28428;BME280;15662;49.128;8.520;2023-04-28T00:49:16;100167.81;;;18.64;42.62
28428;BME280;15662;49.128;8.520;2023-04-28T00:51:44;100153.72;;;18.60;42.89
28428;BME280;15662;49.128;8.520;2023-04-28T00:54:15;100182.09;;;18.64;42.78
28428;BME280;15662;49.128;8.520;2023-04-28T00:56:44;100162.00;;;18.57;42.94
28428;BME280;15662;49.128;8.520;2023-04-28T00:59:12;100158.53;;;18.55;42.84
28428;BME280;15662;49.128;8.520;2023-04-28T01:01:40;100140.13;;;18.49;43.00
28428;BME280;15662;49.128;8.520;2023-04-28T01:04:09;100156.97;;;18.51;43.15
28428;BME280;15662;49.128;8.520;2023-04-28T01:06:41;100148.34;;;18.46;43.15
28428;BME280;15662;49.128;8.520;2023-04-28T01:09:09;100121.22;;;18.36;43.13
28428;BME280;15662;49.128;8.520;2023-04-28T01:11:38;100131.50;;;18.44;43.17
28428;BME280;15662;49.128;8.520;2023-04-28T01:14:09;100118.53;;;18.36;43.23
28428;BME280;15662;49.128;8.520;2023-04-28T01:16:40;100122.28;;;18.34;43.23
28428;BME280;15662;49.128;8.520;2023-04-28T01:19:20;100130.72;;;18.42;43.46
28428;BME280;15662;49.128;8.520;2023-04-28T01:21:50;100119.50;;;18.35;43.84
28428;BME280;15662;49.128;8.520;2023-04-28T01:24:23;100115.09;;;18.34;43.91
28428;BME280;15662;49.128;8.520;2023-04-28T01:26:51;100114.03;;;18.37;43.82
28428;BME280;15662;49.128;8.520;2023-04-28T01:29:22;100115.66;;;18.39;43.91
28428;BME280;15662;49.128;8.520;2023-04-28T01:31:53;100094.66;;;18.31;43.90
28428;BME280;15662;49.128;8.520;2023-04-28T01:34:22;100111.44;;;18.35;43.92
28428;BME280;15662;49.128;8.520;2023-04-28T01:36:51;100112.41;;;18.34;44.08
28428;BME280;15662;49.128;8.520;2023-04-28T01:39:19;100116.81;;;18.35;44.01
28428;BME280;15662;49.128;8.520;2023-04-28T01:45:32;100125.53;;;18.24;44.20
28428;BME280;15662;49.128;8.520;2023-04-28T01:48:57;100130.34;;;18.34;44.13
28428;BME280;15662;49.128;8.520;2023-04-28T01:55:32;100130.34;;;18.34;44.08
28428;BME280;15662;49.128;8.520;2023-04-28T01:58:40;100124.97;;;18.34;44.46
28428;BME280;15662;49.128;8.520;2023-04-28T02:01:47;100123.81;;;18.38;44.19
28428;BME280;15662;49.128;8.520;2023-04-28T02:04:56;100124.00;;;18.35;44.61
28428;BME280;15662;49.128;8.520;2023-04-28T02:11:47;100131.38;;;18.31;44.96
28428;BME280;15662;49.128;8.520;2023-04-28T02:14:53;100130.34;;;18.34;45.03
28428;BME280;15662;49.128;8.520;2023-04-28T02:20:46;100119.50;;;18.35;45.29
28428;BME280;15662;49.128;8.520;2023-04-28T02:30:52;100108.28;;;18.28;45.19
28428;BME280;15662;49.128;8.520;2023-04-28T02:34:09;100108.66;;;18.22;45.56
28428;BME280;15662;49.128;8.520;2023-04-28T02:37:14;100108.00;;;18.19;45.87
28428;BME280;15662;49.128;8.520;2023-04-28T02:40:06;100118.72;;;18.19;45.91
28428;BME280;15662;49.128;8.520;2023-04-28T02:43:13;100112.28;;;18.21;45.89
28428;BME280;15662;49.128;8.520;2023-04-28T02:45:41;100131.28;;;18.18;46.22
28428;BME280;15662;49.128;8.520;2023-04-28T02:48:35;100139.13;;;18.21;46.48
28428;BME280;15662;49.128;8.520;2023-04-28T02:55:43;100117.63;;;18.07;46.64
28428;BME280;15662;49.128;8.520;2023-04-28T02:59:26;100125.03;;;18.03;46.81
28428;BME280;15662;49.128;8.520;2023-04-28T03:02:35;100115.16;;;18.04;47.00
28428;BME280;15662;49.128;8.520;2023-04-28T03:16:04;100111.69;;;18.02;47.18
28428;BME280;15662;49.128;8.520;2023-04-28T03:29:23;100104.13;;;17.94;47.70
28428;BME280;15662;49.128;8.520;2023-04-28T03:39:08;100096.09;;;17.94;47.80
28428;BME280;15662;49.128;8.520;2023-04-28T03:42:16;100095.28;;;17.92;47.79
28428;BME280;15662;49.128;8.520;2023-04-28T03:45:21;100090.03;;;17.91;47.87
28428;BME280;15662;49.128;8.520;2023-04-28T03:55:54;100093.13;;;17.99;48.02
28428;BME280;15662;49.128;8.520;2023-04-28T03:58:41;100104.44;;;18.04;47.90
28428;BME280;15662;49.128;8.520;2023-04-28T04:01:30;100107.28;;;18.01;48.10
28428;BME280;15662;49.128;8.520;2023-04-28T04:08:26;100099.22;;;17.87;48.46
28428;BME280;15662;49.128;8.520;2023-04-28T04:11:32;100099.03;;;17.90;48.67
28428;BME280;15662;49.128;8.520;2023-04-28T04:44:15;100052.47;;;17.76;49.45
28428;BME280;15662;49.128;8.520;2023-04-28T04:47:22;100048.81;;;17.77;49.71
28428;BME280;15662;49.128;8.520;2023-04-28T04:57:54;100057.75;;;17.92;49.58
28428;BME280;15662;49.128;8.520;2023-04-28T05:01:05;100056.13;;;17.90;49.89
28428;BME280;15662;49.128;8.520;2023-04-28T05:07:47;100060.91;;;17.85;50.11
28428;BME280;15662;49.128;8.520;2023-04-28T05:14:25;100064.75;;;17.95;50.35
28428;BME280;15662;49.128;8.520;2023-04-28T05:38:53;100058.91;;;18.02;50.48
28428;BME280;15662;49.128;8.520;2023-04-28T05:42:00;100039.97;;;18.05;50.40
28428;BME280;15662;49.128;8.520;2023-04-28T05:49:32;100053.84;;;18.12;50.56
28428;BME280;15662;49.128;8.520;2023-04-28T05:52:37;100053.78;;;18.14;50.55
28428;BME280;15662;49.128;8.520;2023-04-28T05:59:30;100058.84;;;18.18;50.70
28428;BME280;15662;49.128;8.520;2023-04-28T06:02:55;100053.50;;;18.18;50.67
28428;BME280;15662;49.128;8.520;2023-04-28T06:06:19;100051.47;;;18.22;50.69
28428;BME280;15662;49.128;8.520;2023-04-28T06:09:24;100053.09;;;18.24;50.83
28428;BME280;15662;49.128;8.520;2023-04-28T06:12:30;100042.38;;;18.24;50.92
28428;BME280;15662;49.128;8.520;2023-04-28T06:15:02;100043.81;;;18.30;51.12
28428;BME280;15662;49.128;8.520;2023-04-28T06:21:33;100046.66;;;18.41;51.10
28428;BME280;15662;49.128;8.520;2023-04-28T06:24:21;100052.69;;;18.45;51.10
28428;BME280;15662;49.128;8.520;2023-04-28T06:31:22;100056.25;;;18.45;51.33
28428;BME280;15662;49.128;8.520;2023-04-28T06:35:09;100050.03;;;18.45;51.41
28428;BME280;15662;49.128;8.520;2023-04-28T06:55:25;100058.66;;;18.36;52.22
28428;BME280;15662;49.128;8.520;2023-04-28T07:11:37;100061.59;;;18.17;53.55
28428;BME280;15662;49.128;8.520;2023-04-28T07:18:37;100076.25;;;17.97;54.21
28428;BME280;15662;49.128;8.520;2023-04-28T07:25:25;100090.63;;;17.96;54.43
28428;BME280;15662;49.128;8.520;2023-04-28T07:41:44;100084.84;;;17.73;55.65
28428;BME280;15662;49.128;8.520;2023-04-28T07:52:15;100070.63;;;17.71;56.00
28428;BME280;15662;49.128;8.520;2023-04-28T08:01:52;100093.19;;;17.97;56.10
28428;BME280;15662;49.128;8.520;2023-04-28T08:04:43;100092.16;;;18.00;56.23
28428;BME280;15662;49.128;8.520;2023-04-28T08:07:53;100095.41;;;18.05;56.15
28428;BME280;15662;49.128;8.520;2023-04-28T08:17:57;100100.59;;;17.94;57.48
28428;BME280;15662;49.128;8.520;2023-04-28T08:20:44;100087.84;;;17.97;58.05
28428;BME280;15662;49.128;8.520;2023-04-28T08:23:33;100083.31;;;17.98;58.58
28428;BME280;15662;49.128;8.520;2023-04-28T08:40:35;100098.41;;;18.15;60.45
28428;BME280;15662;49.128;8.520;2023-04-28T08:44:18;100093.72;;;18.18;60.67
28428;BME280;15662;49.128;8.520;2023-04-28T09:03:40;100095.09;;;18.68;61.88
28428;BME280;15662;49.128;8.520;2023-04-28T09:07:09;100082.22;;;18.73;62.04
28428;BME280;15662;49.128;8.520;2023-04-28T09:21:30;100079.09;;;19.08;62.34
28428;BME280;15662;49.128;8.520;2023-04-28T09:31:46;100059.94;;;19.40;62.80
28428;BME280;15662;49.128;8.520;2023-04-28T09:45:32;100064.16;;;19.83;62.35
28428;BME280;15662;49.128;8.520;2023-04-28T09:49:05;100069.53;;;19.83;62.21
28428;BME280;15662;49.128;8.520;2023-04-28T09:52:12;100065.81;;;19.86;62.02
28428;BME280;15662;49.128;8.520;2023-04-28T09:55:56;100056.97;;;19.97;62.20
28428;BME280;15662;49.128;8.520;2023-04-28T10:02:10;100068.84;;;20.20;62.43
28428;BME280;15662;49.128;8.520;2023-04-28T10:09:13;100059.34;;;20.40;62.08
28428;BME280;15662;49.128;8.520;2023-04-28T10:12:24;100060.97;;;20.55;62.24
28428;BME280;15662;49.128;8.520;2023-04-28T10:25:26;100063.44;;;20.95;61.54
28428;BME280;15662;49.128;8.520;2023-04-28T10:42:49;100096.56;;;20.71;60.69
28428;BME280;15662;49.128;8.520;2023-04-28T11:15:10;100059.22;;;20.54;61.10
28428;BME280;15662;49.128;8.520;2023-04-28T11:18:16;100051.47;;;20.62;61.01
28428;BME280;15662;49.128;8.520;2023-04-28T11:25:11;100057.69;;;20.75;61.24
28428;BME280;15662;49.128;8.520;2023-04-28T11:28:23;100050.25;;;20.79;61.43
28428;BME280;15662;49.128;8.520;2023-04-28T11:34:21;100059.25;;;20.91;61.21
28428;BME280;15662;49.128;8.520;2023-04-28T11:39:57;100046.63;;;20.91;61.34
28428;BME280;15662;49.128;8.520;2023-04-28T11:51:08;100067.25;;;20.79;61.06
28428;BME280;15662;49.128;8.520;2023-04-28T12:03:51;100051.66;;;21.08;61.11
28428;BME280;15662;49.128;8.520;2023-04-28T12:07:13;100055.06;;;21.10;61.21
28428;BME280;15662;49.128;8.520;2023-04-28T12:13:43;100051.22;;;21.38;62.02
28428;BME280;15662;49.128;8.520;2023-04-28T12:16:38;100053.88;;;21.62;61.99
28428;BME280;15662;49.128;8.520;2023-04-28T12:20:06;100059.81;;;21.79;61.86
28428;BME280;15662;49.128;8.520;2023-04-28T12:23:13;100067.19;;;21.88;61.73
28428;BME280;15662;49.128;8.520;2023-04-28T12:29:49;100057.47;;;21.85;61.08
28428;BME280;15662;49.128;8.520;2023-04-28T12:32:18;100054.16;;;21.82;60.99
28428;BME280;15662;49.128;8.520;2023-04-28T12:38:13;100057.84;;;21.81;60.37
28428;BME280;15662;49.128;8.520;2023-04-28T12:41:01;100059.41;;;21.72;60.76
28428;BME280;15662;49.128;8.520;2023-04-28T12:47:52;100052.78;;;21.65;60.47
28428;BME280;15662;49.128;8.520;2023-04-28T12:50:22;100058.91;;;21.67;60.79
28428;BME280;15662;49.128;8.520;2023-04-28T13:00:02;100050.66;;;21.93;60.91
28428;BME280;15662;49.128;8.520;2023-04-28T13:03:08;100053.84;;;22.09;60.92
28428;BME280;15662;49.128;8.520;2023-04-28T13:12:48;100061.75;;;22.46;60.92
28428;BME280;15662;49.128;8.520;2023-04-28T13:18:44;100054.13;;;22.73;60.79
28428;BME280;15662;49.128;8.520;2023-04-28T13:25:52;100038.88;;;22.95;60.49
28428;BME280;15662;49.128;8.520;2023-04-28T13:28:41;100035.19;;;23.07;60.06
28428;BME280;15662;49.128;8.520;2023-04-28T13:51:26;100014.19;;;23.31;58.87
28428;BME280;15662;49.128;8.520;2023-04-28T13:54:34;100001.69;;;23.30;58.44
28428;BME280;15662;49.128;8.520;2023-04-28T13:57:40;100006.34;;;23.28;58.22
28428;BME280;15662;49.128;8.520;2023-04-28T14:00:47;100000.13;;;23.16;58.61
28428;BME280;15662;49.128;8.520;2023-04-28T14:03:33;99997.28;;;23.18;58.08
28428;BME280;15662;49.128;8.520;2023-04-28T14:06:59;99993.50;;;23.09;58.13
28428;BME280;15662;49.128;8.520;2023-04-28T14:20:40;99992.34;;;22.91;57.89
28428;BME280;15662;49.128;8.520;2023-04-28T14:23:26;99987.16;;;22.88;58.16
28428;BME280;15662;49.128;8.520;2023-04-28T14:26:33;99971.94;;;22.98;58.13
28428;BME280;15662;49.128;8.520;2023-04-28T14:29:21;99968.38;;;22.98;58.28
28428;BME280;15662;49.128;8.520;2023-04-28T14:33:05;99972.09;;;23.17;58.41
28428;BME280;15662;49.128;8.520;2023-04-28T14:43:00;99960.13;;;23.52;57.63
28428;BME280;15662;49.128;8.520;2023-04-28T14:52:58;99961.28;;;23.59;57.17
28428;BME280;15662;49.128;8.520;2023-04-28T14:56:09;99941.72;;;23.67;57.29
28428;BME280;15662;49.128;8.520;2023-04-28T15:02:51;99953.59;;;23.76;56.88
28428;BME280;15662;49.128;8.520;2023-04-28T15:06:34;99948.31;;;23.74;56.67
28428;BME280;15662;49.128;8.520;2023-04-28T15:13:43;99946.03;;;23.70;56.35
28428;BME280;15662;49.128;8.520;2023-04-28T15:19:56;99956.75;;;23.60;56.41
28428;BME280;15662;49.128;8.520;2023-04-28T15:23:21;99956.47;;;23.63;55.96
28428;BME280;15662;49.128;8.520;2023-04-28T15:32:58;99943.69;;;23.44;56.00
28428;BME280;15662;49.128;8.520;2023-04-28T15:42:53;99961.03;;;23.41;55.52
28428;BME280;15662;49.128;8.520;2023-04-28T15:46:18;99956.41;;;23.32;55.41
28428;BME280;15662;49.128;8.520;2023-04-28T15:49:41;99960.66;;;23.25;55.61
28428;BME280;15662;49.128;8.520;2023-04-28T15:52:29;99965.69;;;23.18;55.98
28428;BME280;15662;49.128;8.520;2023-04-28T15:58:44;99959.34;;;23.08;56.04
28428;BME280;15662;49.128;8.520;2023-04-28T16:01:32;99950.06;;;23.01;56.28
28428;BME280;15662;49.128;8.520;2023-04-28T16:04:57;99952.91;;;22.88;56.39
28428;BME280;15662;49.128;8.520;2023-04-28T16:11:10;99932.16;;;22.89;56.94
28428;BME280;15662;49.128;8.520;2023-04-28T16:21:07;99958.53;;;22.85;57.79
28428;BME280;15662;49.128;8.520;2023-04-28T16:34:30;99938.47;;;22.67;58.28
28428;BME280;15662;49.128;8.520;2023-04-28T16:37:38;99945.97;;;22.63;58.40
28428;BME280;15662;49.128;8.520;2023-04-28T16:44:31;99949.66;;;22.62;58.58
28428;BME280;15662;49.128;8.520;2023-04-28T16:47:01;99935.41;;;22.60;58.52
28428;BME280;15662;49.128;8.520;2023-04-28T16:49:31;99936.09;;;22.74;58.41
28428;BME280;15662;49.128;8.520;2023-04-28T16:52:03;99937.56;;;22.78;58.26
28428;BME280;15662;49.128;8.520;2023-04-28T16:54:32;99928.47;;;22.79;58.41
28428;BME280;15662;49.128;8.520;2023-04-28T16:57:01;99918.56;;;22.68;58.05
28428;BME280;15662;49.128;8.520;2023-04-28T16:59:33;99936.81;;;22.76;58.21
28428;BME280;15662;49.128;8.520;2023-04-28T17:02:03;99926.44;;;22.71;58.22
28428;BME280;15662;49.128;8.520;2023-04-28T17:04:39;99920.66;;;22.64;58.24
28428;BME280;15662;49.128;8.520;2023-04-28T17:07:08;99921.28;;;22.68;58.26
28428;BME280;15662;49.128;8.520;2023-04-28T17:09:36;99922.28;;;22.67;58.19
28428;BME280;15662;49.128;8.520;2023-04-28T17:12:06;99922.97;;;22.69;58.21
28428;BME280;15662;49.128;8.520;2023-04-28T17:14:37;99930.00;;;22.72;58.02
28428;BME280;15662;49.128;8.520;2023-04-28T17:17:05;99922.50;;;22.64;58.22
28428;BME280;15662;49.128;8.520;2023-04-28T17:19:35;99918.97;;;22.63;58.04
28428;BME280;15662;49.128;8.520;2023-04-28T17:22:03;99920.06;;;22.61;58.20
28428;BME280;15662;49.128;8.520;2023-04-28T17:24:32;99926.44;;;22.60;58.16
28428;BME280;15662;49.128;8.520;2023-04-28T17:27:05;99923.03;;;22.58;58.14
28428;BME280;15662;49.128;8.520;2023-04-28T17:29:36;99914.97;;;22.47;58.49
28428;BME280;15662;49.128;8.520;2023-04-28T17:32:05;99919.47;;;22.46;58.19
28428;BME280;15662;49.128;8.520;2023-04-28T17:34:35;99923.44;;;22.42;58.32
28428;BME280;15662;49.128;8.520;2023-04-28T17:37:05;99934.72;;;22.47;58.33
28428;BME280;15662;49.128;8.520;2023-04-28T17:39:36;99925.88;;;22.45;58.18
28428;BME280;15662;49.128;8.520;2023-04-28T17:42:06;99927.00;;;22.43;58.28
28428;BME280;15662;49.128;8.520;2023-04-28T17:44:34;99931.66;;;22.40;58.47
28428;BME280;15662;49.128;8.520;2023-04-28T17:47:02;99928.38;;;22.37;58.39
28428;BME280;15662;49.128;8.520;2023-04-28T17:49:32;99930.59;;;22.32;58.70
28428;BME280;15662;49.128;8.520;2023-04-28T17:52:00;99928.25;;;22.27;58.63
28428;BME280;15662;49.128;8.520;2023-04-28T17:54:29;99918.19;;;22.18;58.59
28428;BME280;15662;49.128;8.520;2023-04-28T17:56:59;99931.44;;;22.21;58.68
28428;BME280;15662;49.128;8.520;2023-04-28T17:59:30;99930.94;;;22.16;58.60
28428;BME280;15662;49.128;8.520;2023-04-28T18:01:58;99919.13;;;22.06;58.67
28428;BME280;15662;49.128;8.520;2023-04-28T18:04:26;99936.72;;;22.11;58.33
28428;BME280;15662;49.128;8.520;2023-04-28T18:06:56;99945.91;;;22.09;58.55
28428;BME280;15662;49.128;8.520;2023-04-28T18:09:27;99946.88;;;22.08;58.54
28428;BME280;15662;49.128;8.520;2023-04-28T18:12:09;99942.94;;;22.01;58.47
28428;BME280;15662;49.128;8.520;2023-04-28T18:14:40;99952.03;;;22.00;58.43
28428;BME280;15662;49.128;8.520;2023-04-28T18:17:16;99945.91;;;21.98;58.31
28428;BME280;15662;49.128;8.520;2023-04-28T18:19:47;99945.50;;;21.91;58.50
28428;BME280;15662;49.128;8.520;2023-04-28T18:22:29;99961.47;;;21.94;58.45
28428;BME280;15662;49.128;8.520;2023-04-28T18:26:00;99955.31;;;21.81;58.58
28428;BME280;15662;49.128;8.520;2023-04-28T18:28:32;99959.59;;;21.72;58.72
28428;BME280;15662;49.128;8.520;2023-04-28T18:31:08;99970.16;;;21.75;58.72
28428;BME280;15662;49.128;8.520;2023-04-28T18:33:40;99975.19;;;21.69;58.76
28428;BME280;15662;49.128;8.520;2023-04-28T18:37:15;99977.72;;;21.59;58.89
28428;BME280;15662;49.128;8.520;2023-04-28T18:40:03;99959.44;;;21.51;58.87
28428;BME280;15662;49.128;8.520;2023-04-28T18:42:45;99977.34;;;21.52;58.89
28428;BME280;15662;49.128;8.520;2023-04-28T18:46:13;99974.13;;;21.47;59.10
28428;BME280;15662;49.128;8.520;2023-04-28T18:48:52;99968.72;;;21.36;58.90
28428;BME280;15662;49.128;8.520;2023-04-28T18:51:43;99975.72;;;21.38;59.11
28428;BME280;15662;49.128;8.520;2023-04-28T18:54:17;99971.41;;;21.36;59.03
28428;BME280;15662;49.128;8.520;2023-04-28T18:57:14;99984.75;;;21.37;59.11
28428;BME280;15662;49.128;8.520;2023-04-28T19:00:07;99979.09;;;21.29;59.17
28428;BME280;15662;49.128;8.520;2023-04-28T19:03:05;99974.91;;;21.25;59.18
28428;BME280;15662;49.128;8.520;2023-04-28T19:06:04;99972.44;;;21.22;59.11
28428;BME280;15662;49.128;8.520;2023-04-28T19:10:05;99982.81;;;21.16;59.15
28428;BME280;15662;49.128;8.520;2023-04-28T19:14:15;99969.53;;;21.01;59.04
28428;BME280;15662;49.128;8.520;2023-04-28T19:17:18;99989.03;;;21.05;59.21
28428;BME280;15662;49.128;8.520;2023-04-28T19:19:58;99981.16;;;21.02;59.01
28428;BME280;15662;49.128;8.520;2023-04-28T19:23:11;99984.13;;;20.99;59.13
28428;BME280;15662;49.128;8.520;2023-04-28T19:26:25;99999.84;;;20.92;59.13
28428;BME280;15662;49.128;8.520;2023-04-28T19:30:54;100014.88;;;20.83;59.49
28428;BME280;15662;49.128;8.520;2023-04-28T19:33:34;100004.84;;;20.85;59.58
28428;BME280;15662;49.128;8.520;2023-04-28T19:36:14;100008.75;;;20.81;59.46
28428;BME280;15662;49.128;8.520;2023-04-28T19:39:05;100014.19;;;20.93;59.78
28428;BME280;15662;49.128;8.520;2023-04-28T19:42:09;100009.03;;;20.90;59.61
28428;BME280;15662;49.128;8.520;2023-04-28T19:45:17;100015.63;;;20.85;59.94
28428;BME280;15662;49.128;8.520;2023-04-28T19:47:45;100036.16;;;20.99;60.21
28428;BME280;15662;49.128;8.520;2023-04-28T19:50:13;100024.53;;;20.99;60.09
28428;BME280;15662;49.128;8.520;2023-04-28T19:52:41;100036.91;;;21.01;59.99
28428;BME280;15662;49.128;8.520;2023-04-28T19:55:08;100041.31;;;21.02;59.95
28428;BME280;15662;49.128;8.520;2023-04-28T19:57:37;100047.53;;;21.03;59.91
28428;BME280;15662;49.128;8.520;2023-04-28T20:00:06;100052.00;;;21.04;60.11
28428;BME280;15662;49.128;8.520;2023-04-28T20:02:36;100052.31;;;20.99;60.12
28428;BME280;15662;49.128;8.520;2023-04-28T20:05:04;100045.19;;;20.98;59.95
28428;BME280;15662;49.128;8.520;2023-04-28T20:07:32;100054.91;;;21.01;59.92
28428;BME280;15662;49.128;8.520;2023-04-28T20:10:00;100063.97;;;21.00;60.21
28428;BME280;15662;49.128;8.520;2023-04-28T20:12:27;100058.56;;;21.00;60.21
28428;BME280;15662;49.128;8.520;2023-04-28T20:14:55;100056.84;;;20.99;60.18
28428;BME280;15662;49.128;8.520;2023-04-28T20:17:22;100042.09;;;20.92;59.87
28428;BME280;15662;49.128;8.520;2023-04-28T20:19:50;100041.38;;;20.90;60.09
28428;BME280;15662;49.128;8.520;2023-04-28T20:22:18;100047.50;;;20.92;59.82
28428;BME280;15662;49.128;8.520;2023-04-28T20:24:46;100052.16;;;20.90;59.85
28428;BME280;15662;49.128;8.520;2023-04-28T20:27:13;100038.16;;;20.84;59.87
28428;BME280;15662;49.128;8.520;2023-04-28T20:29:41;100049.03;;;20.83;59.91
28428;BME280;15662;49.128;8.520;2023-04-28T20:32:09;100044.94;;;20.77;59.97
28428;BME280;15662;49.128;8.520;2023-04-28T20:34:37;100044.94;;;20.77;59.88
28428;BME280;15662;49.128;8.520;2023-04-28T20:37:04;100051.44;;;20.75;59.74
28428;BME280;15662;49.128;8.520;2023-04-28T20:39:33;100049.09;;;20.70;59.74
28428;BME280;15662;49.128;8.520;2023-04-28T20:42:01;100042.19;;;20.66;59.96
28428;BME280;15662;49.128;8.520;2023-04-28T20:44:29;100046.72;;;20.66;60.15
28428;BME280;15662;49.128;8.520;2023-04-28T20:46:56;100042.00;;;20.56;59.83
28428;BME280;15662;49.128;8.520;2023-04-28T20:49:25;100044.69;;;20.56;59.95
28428;BME280;15662;49.128;8.520;2023-04-28T20:51:53;100053.84;;;20.54;59.92
28428;BME280;15662;49.128;8.520;2023-04-28T20:54:27;100052.34;;;20.50;60.38
28428;BME280;15662;49.128;8.520;2023-04-28T20:56:55;100050.53;;;20.50;60.01
28428;BME280;15662;49.128;8.520;2023-04-28T20:59:23;100049.75;;;20.48;60.03
28428;BME280;15662;49.128;8.520;2023-04-28T21:01:50;100052.00;;;20.42;60.12
28428;BME280;15662;49.128;8.520;2023-04-28T21:04:18;100052.00;;;20.42;60.16
28428;BME280;15662;49.128;8.520;2023-04-28T21:06:47;100053.97;;;20.40;60.24
28428;BME280;15662;49.128;8.520;2023-04-28T21:09:18;100058.56;;;20.38;59.96
28428;BME280;15662;49.128;8.520;2023-04-28T21:11:46;100060.59;;;20.34;60.19
28428;BME280;15662;49.128;8.520;2023-04-28T21:14:14;100066.22;;;20.31;60.00
28428;BME280;15662;49.128;8.520;2023-04-28T21:16:42;100066.31;;;20.29;60.01
28428;BME280;15662;49.128;8.520;2023-04-28T21:19:10;100068.38;;;20.26;59.69
28428;BME280;15662;49.128;8.520;2023-04-28T21:21:37;100066.75;;;20.23;59.72
28428;BME280;15662;49.128;8.520;2023-04-28T21:24:05;100067.75;;;20.22;59.62
28428;BME280;15662;49.128;8.520;2023-04-28T21:26:34;100074.84;;;20.23;59.59
28428;BME280;15662;49.128;8.520;2023-04-28T21:29:03;100066.03;;;20.21;59.58
28428;BME280;15662;49.128;8.520;2023-04-28T21:31:30;100067.19;;;20.17;59.58
28428;BME280;15662;49.128;8.520;2023-04-28T21:33:58;100073.31;;;20.19;59.31
28428;BME280;15662;49.128;8.520;2023-04-28T21:36:26;100069.88;;;20.17;59.59
28428;BME280;15662;49.128;8.520;2023-04-28T21:38:54;100070.09;;;20.14;59.27
28428;BME280;15662;49.128;8.520;2023-04-28T21:41:22;100059.44;;;20.13;59.12
28428;BME280;15662;49.128;8.520;2023-04-28T21:43:52;100074.06;;;20.08;59.09
28428;BME280;15662;49.128;8.520;2023-04-28T21:46:20;100081.28;;;20.08;59.17
28428;BME280;15662;49.128;8.520;2023-04-28T21:48:47;100078.84;;;20.05;59.35
28428;BME280;15662;49.128;8.520;2023-04-28T21:51:15;100083.88;;;20.09;59.29
28428;BME280;15662;49.128;8.520;2023-04-28T21:53:43;100085.81;;;20.07;58.94
28428;BME280;15662;49.128;8.520;2023-04-28T21:56:10;100069.13;;;20.02;59.18
28428;BME280;15662;49.128;8.520;2023-04-28T21:58:38;100072.56;;;20.04;59.27
28428;BME280;15662;49.128;8.520;2023-04-28T22:01:06;100074.63;;;20.01;59.02
28428;BME280;15662;49.128;8.520;2023-04-28T22:03:34;100088.09;;;20.01;59.09
28428;BME280;15662;49.128;8.520;2023-04-28T22:06:03;100081.06;;;19.98;59.32
28428;BME280;15662;49.128;8.520;2023-04-28T22:08:30;100082.25;;;19.94;59.24
28428;BME280;15662;49.128;8.520;2023-04-28T22:10:59;100087.63;;;19.94;59.51
28428;BME280;15662;49.128;8.520;2023-04-28T22:13:27;100081.63;;;19.91;59.56
28428;BME280;15662;49.128;8.520;2023-04-28T22:15:54;100090.63;;;19.90;59.75
28428;BME280;15662;49.128;8.520;2023-04-28T22:18:23;100089.03;;;19.87;59.60
28428;BME280;15662;49.128;8.520;2023-04-28T22:20:50;100079.31;;;19.84;59.82
28428;BME280;15662;49.128;8.520;2023-04-28T22:23:18;100077.84;;;19.80;59.81
28428;BME280;15662;49.128;8.520;2023-04-28T22:25:46;100079.66;;;19.80;59.88
28428;BME280;15662;49.128;8.520;2023-04-28T22:28:14;100072.78;;;19.76;59.79
28428;BME280;15662;49.128;8.520;2023-04-28T22:30:44;100080.84;;;19.76;59.95
28428;BME280;15662;49.128;8.520;2023-04-28T22:33:13;100087.28;;;19.73;59.94
28428;BME280;15662;49.128;8.520;2023-04-28T22:35:40;100084.69;;;19.72;59.89
28428;BME280;15662;49.128;8.520;2023-04-28T22:38:08;100084.16;;;19.67;59.81
28428;BME280;15662;49.128;8.520;2023-04-28T22:40:36;100084.91;;;19.69;59.80
28428;BME280;15662;49.128;8.520;2023-04-28T22:43:03;100092.97;;;19.69;59.66
28428;BME280;15662;49.128;8.520;2023-04-28T22:45:31;100096.63;;;19.68;59.91
28428;BME280;15662;49.128;8.520;2023-04-28T22:47:59;100091.56;;;19.63;59.72
28428;BME280;15662;49.128;8.520;2023-04-28T22:50:27;100099.50;;;19.65;59.96
28428;BME280;15662;49.128;8.520;2023-04-28T22:52:57;100092.66;;;19.61;59.96